createdAt,value
2022-08-17T00:00:04.183Z,1005.52
2022-08-17T00:00:49.404Z,1005.62
2022-08-17T00:01:08.858Z,1005.62
2022-08-17T00:01:51.532Z,1005.52
2022-08-17T00:02:21.245Z,1005.52
2022-08-17T00:02:36.775Z,1005.62
2022-08-17T00:03:02.758Z,1005.62
2022-08-17T00:03:32.018Z,1005.62
2022-08-17T00:04:06.931Z,1005.42
2022-08-17T00:04:34.955Z,1005.52
2022-08-17T00:04:52.133Z,1005.52
2022-08-17T00:05:23.744Z,1005.52
2022-08-17T00:05:41.983Z,1005.42
2022-08-17T00:06:11.956Z,1005.42
2022-08-17T00:06:35.364Z,1005.62
2022-08-17T00:07:00.584Z,1005.62
2022-08-17T00:07:32.092Z,1005.62
2022-08-17T00:08:04.009Z,1005.52
2022-08-17T00:08:34.992Z,1005.42
2022-08-17T00:08:54.397Z,1005.42
2022-08-17T00:09:23.753Z,1005.42
2022-08-17T00:09:43.021Z,1005.42
2022-08-17T00:10:12.255Z,1005.42
2022-08-17T00:10:35.988Z,1005.52
2022-08-17T00:10:59.812Z,1005.52
2022-08-17T00:11:31.877Z,1005.52
2022-08-17T00:12:40.725Z,1005.72
2022-08-17T00:12:52.338Z,1005.42
2022-08-17T00:13:24.512Z,1005.42
2022-08-17T00:13:42.930Z,1005.62
2022-08-17T00:14:12.018Z,1005.62
2022-08-17T00:14:35.029Z,1005.42
2022-08-17T00:14:59.804Z,1005.42
2022-08-17T00:15:32.343Z,1005.42
2022-08-17T00:16:04.072Z,1005.42
2022-08-17T00:16:56.720Z,1005.52
2022-08-17T00:17:08.754Z,1005.52
2022-08-17T00:17:34.965Z,1005.42
2022-08-17T00:17:55.818Z,1005.42
2022-08-17T00:18:57.524Z,1005.42
2022-08-17T00:19:16.329Z,1005.52
2022-08-17T00:19:34.934Z,1005.32
2022-08-17T00:20:05.239Z,1005.32
2022-08-17T00:20:35.163Z,1005.52
2022-08-17T00:21:10.563Z,1005.52
2022-08-17T00:21:25.248Z,1005.52
2022-08-17T00:22:29.379Z,1005.52
2022-08-17T00:22:43.811Z,1005.52
2022-08-17T00:23:15.851Z,1005.52
2022-08-17T00:23:35.299Z,1005.52
2022-08-17T00:24:04.043Z,1005.52
2022-08-17T00:24:34.934Z,1005.52
2022-08-17T00:24:52.138Z,1005.52
2022-08-17T00:25:23.730Z,1005.52
2022-08-17T00:25:41.075Z,1005.32
2022-08-17T00:26:14.309Z,1005.32
2022-08-17T00:26:45.077Z,1005.52
2022-08-17T00:26:59.831Z,1005.52
2022-08-17T00:27:31.951Z,1005.52
2022-08-17T00:28:04.088Z,1005.52
2022-08-17T00:28:35.739Z,1005.21
2022-08-17T00:29:09.315Z,1005.21
2022-08-17T00:29:34.934Z,1005.52
2022-08-17T00:29:55.790Z,1005.52
2022-08-17T00:30:27.835Z,1005.52
2022-08-17T00:30:59.823Z,1005.62
2022-08-17T00:31:33.054Z,1005.62
2022-08-17T00:33:12.481Z,1005.62
2022-08-17T00:33:23.900Z,1005.32
2022-08-17T00:33:41.635Z,1005.72
2022-08-17T00:34:11.823Z,1005.72
2022-08-17T00:34:36.475Z,1005.42
2022-08-17T00:34:59.799Z,1005.42
2022-08-17T00:35:33.006Z,1005.42
2022-08-17T00:36:04.054Z,1005.52
2022-08-17T00:36:35.133Z,1005.52
2022-08-17T00:37:07.258Z,1005.52
2022-08-17T00:37:23.635Z,1005.52
2022-08-17T00:37:41.569Z,1005.52
2022-08-17T00:38:11.895Z,1005.52
2022-08-17T00:38:35.743Z,1005.42
2022-08-17T00:39:00.665Z,1005.42
2022-08-17T00:39:32.155Z,1005.42
2022-08-17T00:40:04.191Z,1005.42
2022-08-17T00:40:40.059Z,1005.42
2022-08-17T00:41:07.863Z,1005.42
2022-08-17T00:41:34.978Z,1005.52
2022-08-17T00:41:55.762Z,1005.52
2022-08-17T00:42:31.149Z,1005.52
2022-08-17T00:42:59.784Z,1005.32
2022-08-17T00:43:31.834Z,1005.32
2022-08-17T00:44:05.520Z,1005.32
2022-08-17T00:44:35.794Z,1005.32
2022-08-17T00:45:07.837Z,1005.32
2022-08-17T00:45:35.994Z,1005.52
2022-08-17T00:45:55.725Z,1005.52
2022-08-17T00:46:27.743Z,1005.52
2022-08-17T00:46:59.830Z,1005.52
2022-08-17T00:47:31.816Z,1005.52
2022-08-17T00:48:04.055Z,1005.52
2022-08-17T00:48:35.023Z,1005.21
2022-08-17T00:49:07.144Z,1005.21
2022-08-17T00:49:24.256Z,1005.21
2022-08-17T00:49:41.311Z,1005.42
2022-08-17T00:50:13.226Z,1005.42
2022-08-17T00:50:36.167Z,1005.42
2022-08-17T00:50:59.765Z,1005.42
2022-08-17T00:51:33.104Z,1005.42
2022-08-17T00:52:04.020Z,1005.11
2022-08-17T00:52:35.726Z,1005.32
2022-08-17T00:53:07.880Z,1005.32
2022-08-17T00:53:35.578Z,1005.32
2022-08-17T00:53:55.776Z,1005.32
2022-08-17T00:54:28.383Z,1005.32
2022-08-17T00:54:59.781Z,1005.32
2022-08-17T00:55:31.762Z,1005.32
2022-08-17T00:56:04.096Z,1005.11
2022-08-17T00:56:36.008Z,1005.52
2022-08-17T00:57:07.719Z,1005.52
2022-08-17T00:57:36.306Z,1005.32
2022-08-17T00:57:57.610Z,1005.32
2022-08-17T00:58:35.970Z,1005.32
2022-08-17T00:59:00.060Z,1005.21
2022-08-17T00:59:32.572Z,1005.21
2022-08-17T01:00:04.184Z,1005.42
2022-08-17T01:00:35.016Z,1005.01
2022-08-17T01:01:07.184Z,1005.01
2022-08-17T01:01:23.725Z,1005.01
2022-08-17T01:01:41.026Z,1005.32
2022-08-17T01:02:11.851Z,1005.32
2022-08-17T01:02:42.532Z,1005.32
2022-08-17T01:02:59.797Z,1005.32
2022-08-17T01:03:31.825Z,1005.32
2022-08-17T01:04:03.975Z,1005.32
2022-08-17T01:04:36.429Z,1005.42
2022-08-17T01:05:07.784Z,1005.42
2022-08-17T01:05:34.982Z,1005.21
2022-08-17T01:05:57.892Z,1005.21
2022-08-17T01:06:27.836Z,1005.21
2022-08-17T01:06:59.786Z,1005.11
2022-08-17T01:07:33.012Z,1005.11
2022-08-17T01:08:04.290Z,1005.42
2022-08-17T01:08:35.802Z,1005.11
2022-08-17T01:09:07.681Z,1005.11
2022-08-17T01:09:36.308Z,1004.91
2022-08-17T01:09:55.792Z,1004.91
2022-08-17T01:10:58.345Z,1004.91
2022-08-17T01:11:15.746Z,1005.32
2022-08-17T01:11:36.090Z,1005.32
2022-08-17T01:12:04.617Z,1005.32
2022-08-17T01:12:34.963Z,1005.21
2022-08-17T01:13:07.456Z,1005.21
2022-08-17T01:13:24.445Z,1005.21
2022-08-17T01:13:41.815Z,1005.42
2022-08-17T01:14:11.675Z,1005.42
2022-08-17T01:14:34.958Z,1005.11
2022-08-17T01:15:00.498Z,1005.11
2022-08-17T01:15:33.553Z,1005.11
2022-08-17T01:16:04.009Z,1005.21
2022-08-17T01:16:36.875Z,1005.21
2022-08-17T01:17:07.699Z,1005.21
2022-08-17T01:17:34.971Z,1005.32
2022-08-17T01:17:56.475Z,1005.32
2022-08-17T01:18:27.726Z,1005.32
2022-08-17T01:18:59.824Z,1005.32
2022-08-17T01:19:31.810Z,1005.32
2022-08-17T01:20:04.396Z,1005.11
2022-08-17T01:20:47.884Z,1005.42
2022-08-17T01:21:07.819Z,1005.42
2022-08-17T01:21:35.668Z,1005.42
2022-08-17T01:21:55.716Z,1005.42
2022-08-17T01:22:27.687Z,1005.42
2022-08-17T01:22:59.748Z,1005.32
2022-08-17T01:23:31.833Z,1005.32
2022-08-17T01:24:04.635Z,1005.11
2022-08-17T01:24:35.000Z,1005.32
2022-08-17T01:25:07.190Z,1005.32
2022-08-17T01:25:24.196Z,1005.32
2022-08-17T01:25:41.368Z,1005.42
2022-08-17T01:26:11.777Z,1005.42
2022-08-17T01:26:36.389Z,1005.21
2022-08-17T01:26:59.832Z,1005.21
2022-08-17T01:27:31.766Z,1005.21
2022-08-17T01:28:04.017Z,1005.11
2022-08-17T01:28:53.839Z,1005.21
2022-08-17T01:29:07.750Z,1005.21
2022-08-17T01:29:35.096Z,1005.42
2022-08-17T01:29:55.763Z,1005.42
2022-08-17T01:30:56.510Z,1005.42
2022-08-17T01:31:00.688Z,1005.21
2022-08-17T01:31:32.069Z,1005.21
2022-08-17T01:32:04.548Z,1005.32
2022-08-17T01:32:35.352Z,1005.32
2022-08-17T01:32:52.838Z,1005.32
2022-08-17T01:33:23.730Z,1005.32
2022-08-17T01:33:42.257Z,1005.42
2022-08-17T01:34:13.215Z,1005.42
2022-08-17T01:34:42.557Z,1005.21
2022-08-17T01:34:59.744Z,1005.21
2022-08-17T01:35:33.062Z,1005.21
2022-08-17T01:36:04.570Z,1005.32
2022-08-17T01:36:36.098Z,1005.21
2022-08-17T01:37:07.691Z,1005.21
2022-08-17T01:37:35.702Z,1005.21
2022-08-17T01:37:55.777Z,1005.21
2022-08-17T01:38:27.793Z,1005.21
2022-08-17T01:38:59.931Z,1005.32
2022-08-17T01:39:31.733Z,1005.32
2022-08-17T01:40:04.682Z,1005.21
2022-08-17T01:40:35.833Z,1005.21
2022-08-17T01:41:07.756Z,1005.21
2022-08-17T01:41:36.764Z,1005.52
2022-08-17T01:41:56.820Z,1005.52
2022-08-17T01:42:27.852Z,1005.52
2022-08-17T01:42:59.729Z,1005.42
2022-08-17T01:43:31.818Z,1005.42
2022-08-17T01:44:04.020Z,1005.52
2022-08-17T01:44:34.998Z,1005.21
2022-08-17T01:44:53.065Z,1005.21
2022-08-17T01:45:23.947Z,1005.21
2022-08-17T01:45:42.962Z,1005.32
2022-08-17T01:46:11.632Z,1005.32
2022-08-17T01:46:36.364Z,1005.11
2022-08-17T01:46:59.710Z,1005.11
2022-08-17T01:47:31.940Z,1005.11
2022-08-17T01:48:05.729Z,1005.32
2022-08-17T01:48:34.962Z,1005.42
2022-08-17T01:48:51.448Z,1005.42
2022-08-17T01:49:23.834Z,1005.42
2022-08-17T01:49:40.989Z,1005.32
2022-08-17T01:50:11.642Z,1005.32
2022-08-17T01:50:34.999Z,1005.32
2022-08-17T01:51:00.067Z,1005.32
2022-08-17T01:51:31.697Z,1005.32
2022-08-17T01:52:20.679Z,1005.32
2022-08-17T01:52:37.947Z,1005.62
2022-08-17T01:53:07.676Z,1005.62
2022-08-17T01:53:34.982Z,1005.32
2022-08-17T01:53:55.691Z,1005.32
2022-08-17T01:54:27.718Z,1005.32
2022-08-17T01:54:59.687Z,1005.21
2022-08-17T01:55:33.203Z,1005.21
2022-08-17T01:56:04.530Z,1005.21
2022-08-17T01:56:34.952Z,1005.11
2022-08-17T01:56:51.428Z,1005.11
2022-08-17T01:57:23.642Z,1005.11
2022-08-17T01:57:40.857Z,1005.11
2022-08-17T01:58:11.727Z,1005.11
2022-08-17T01:58:35.019Z,1005.42
2022-08-17T01:58:59.746Z,1005.42
2022-08-17T01:59:31.592Z,1005.42
2022-08-17T02:00:04.962Z,1005.32
2022-08-17T02:00:59.680Z,1005.01
2022-08-17T02:01:08.372Z,1005.01
2022-08-17T02:01:36.326Z,1005.21
2022-08-17T02:01:55.821Z,1005.21
2022-08-17T02:02:30.565Z,1005.21
2022-08-17T02:02:59.695Z,1005.32
2022-08-17T02:03:31.610Z,1005.32
2022-08-17T02:04:04.038Z,1005.11
2022-08-17T02:04:34.939Z,1004.91
2022-08-17T02:04:51.405Z,1004.91
2022-08-17T02:05:23.628Z,1004.91
2022-08-17T02:05:42.677Z,1005.32
2022-08-17T02:06:27.883Z,1005.32
2022-08-17T02:06:45.022Z,1005.11
2022-08-17T02:06:59.675Z,1005.11
2022-08-17T02:07:31.683Z,1005.11
2022-08-17T02:08:04.015Z,1005.21
2022-08-17T02:08:38.761Z,1005.21
2022-08-17T02:08:57.024Z,1005.21
2022-08-17T02:09:25.862Z,1005.21
2022-08-17T02:09:42.098Z,1005.21
2022-08-17T02:10:20.141Z,1005.21
2022-08-17T02:10:35.285Z,1005.21
2022-08-17T02:10:59.793Z,1005.21
2022-08-17T02:11:31.693Z,1005.21
2022-08-17T02:12:37.432Z,1005.11
2022-08-17T02:12:51.945Z,1005.21
2022-08-17T02:13:23.646Z,1005.21
2022-08-17T02:13:40.770Z,1005.11
2022-08-17T02:14:11.612Z,1005.11
2022-08-17T02:14:35.113Z,1005.11
2022-08-17T02:14:59.887Z,1005.11
2022-08-17T02:15:31.828Z,1005.11
2022-08-17T02:16:04.020Z,1005.32
2022-08-17T02:16:37.916Z,1005.11
2022-08-17T02:17:07.733Z,1005.11
2022-08-17T02:17:35.312Z,1005.21
2022-08-17T02:17:58.661Z,1005.21
2022-08-17T02:18:27.590Z,1005.21
2022-08-17T02:19:00.768Z,1005.11
2022-08-17T02:19:31.792Z,1005.11
2022-08-17T02:20:04.655Z,1005.21
2022-08-17T02:20:42.646Z,1005.01
2022-08-17T02:20:51.472Z,1005.01
2022-08-17T02:21:24.445Z,1005.01
2022-08-17T02:21:43.020Z,1005.11
2022-08-17T02:22:11.683Z,1005.11
2022-08-17T02:22:35.261Z,1005.11
2022-08-17T02:23:00.474Z,1005.11
2022-08-17T02:23:31.789Z,1005.11
2022-08-17T02:24:04.021Z,1005.21
2022-08-17T02:25:00.454Z,1005.01
2022-08-17T02:25:07.623Z,1005.01
2022-08-17T02:25:35.076Z,1005.21
2022-08-17T02:25:56.041Z,1005.21
2022-08-17T02:26:29.304Z,1005.21
2022-08-17T02:26:59.782Z,1005.21
2022-08-17T02:27:31.838Z,1005.21
2022-08-17T02:28:04.770Z,1005.01
2022-08-17T02:28:34.979Z,1005.21
2022-08-17T02:28:51.421Z,1005.21
2022-08-17T02:29:23.612Z,1005.21
2022-08-17T02:29:40.737Z,1005.11
2022-08-17T02:31:00.067Z,1005.11
2022-08-17T02:31:15.690Z,1005.01
2022-08-17T02:31:35.073Z,1005.11
2022-08-17T02:32:03.916Z,1005.11
2022-08-17T02:32:35.026Z,1004.91
2022-08-17T02:32:51.590Z,1004.91
2022-08-17T02:33:23.569Z,1004.91
2022-08-17T02:34:03.275Z,1005.11
2022-08-17T02:34:27.645Z,1005.11
2022-08-17T02:34:59.694Z,1005.21
2022-08-17T02:35:31.640Z,1005.21
2022-08-17T02:36:04.020Z,1005.42
2022-08-17T02:36:35.615Z,1004.84
2022-08-17T02:37:07.551Z,1004.84
2022-08-17T02:37:35.014Z,1005.42
2022-08-17T02:37:55.924Z,1005.42
2022-08-17T02:38:27.660Z,1005.42
2022-08-17T02:38:59.876Z,1004.91
2022-08-17T02:39:31.634Z,1004.91
2022-08-17T02:40:04.132Z,1005.42
2022-08-17T02:40:36.692Z,1005.21
2022-08-17T02:41:07.810Z,1005.21
2022-08-17T02:41:35.106Z,1005.21
2022-08-17T02:41:56.359Z,1005.21
2022-08-17T02:42:28.374Z,1005.21
2022-08-17T02:42:59.705Z,1005.11
2022-08-17T02:43:31.627Z,1005.11
2022-08-17T02:44:03.837Z,1005.11
2022-08-17T02:44:39.792Z,1005.11
2022-08-17T02:45:07.681Z,1005.11
2022-08-17T02:45:35.023Z,1005.11
2022-08-17T02:45:55.615Z,1005.11
2022-08-17T02:46:27.616Z,1005.11
2022-08-17T02:47:00.331Z,1005.01
2022-08-17T02:47:31.597Z,1005.01
2022-08-17T02:48:03.855Z,1005.11
2022-08-17T02:48:35.003Z,1005.21
2022-08-17T02:48:51.588Z,1005.21
2022-08-17T02:49:24.238Z,1005.21
2022-08-17T02:49:45.123Z,1005.21
2022-08-17T02:50:13.028Z,1005.21
2022-08-17T02:50:36.267Z,1005.32
2022-08-17T02:51:00.276Z,1005.32
2022-08-17T02:51:31.551Z,1005.32
2022-08-17T02:52:04.440Z,1005.11
2022-08-17T02:53:01.376Z,1005.21
2022-08-17T02:53:07.895Z,1005.21
2022-08-17T02:53:35.930Z,1005.32
2022-08-17T02:54:05.284Z,1005.32
2022-08-17T02:54:43.636Z,1005.32
2022-08-17T02:55:15.714Z,1005.32
2022-08-17T02:55:34.992Z,1005.32
2022-08-17T02:56:04.326Z,1005.32
2022-08-17T02:56:35.058Z,1005.52
2022-08-17T02:56:51.450Z,1005.52
2022-08-17T02:57:23.604Z,1005.52
2022-08-17T02:57:40.785Z,1005.32
2022-08-17T02:58:12.808Z,1005.32
2022-08-17T02:58:36.186Z,1005.11
2022-08-17T02:58:59.805Z,1005.11
2022-08-17T02:59:31.717Z,1005.11
2022-08-17T03:00:04.082Z,1005.21
2022-08-17T03:00:35.122Z,1005.32
2022-08-17T03:00:51.499Z,1005.32
2022-08-17T03:01:23.456Z,1005.32
2022-08-17T03:01:40.774Z,1005.42
2022-08-17T03:02:13.432Z,1005.42
2022-08-17T03:02:35.105Z,1005.11
2022-08-17T03:02:59.706Z,1005.11
2022-08-17T03:03:31.658Z,1005.11
2022-08-17T03:04:04.221Z,1005.21
2022-08-17T03:04:35.257Z,1005.42
2022-08-17T03:04:52.747Z,1005.42
2022-08-17T03:05:23.723Z,1005.42
2022-08-17T03:05:41.042Z,1005.21
2022-08-17T03:06:11.511Z,1005.21
2022-08-17T03:06:35.308Z,1005.52
2022-08-17T03:07:00.505Z,1005.52
2022-08-17T03:07:31.590Z,1005.52
2022-08-17T03:08:03.860Z,1005.52
2022-08-17T03:08:36.278Z,1005.62
2022-08-17T03:09:07.565Z,1005.62
2022-08-17T03:09:34.994Z,1005.32
2022-08-17T03:09:55.623Z,1005.32
2022-08-17T03:10:27.571Z,1005.32
2022-08-17T03:10:59.635Z,1005.52
2022-08-17T03:11:32.003Z,1005.52
2022-08-17T03:12:04.493Z,1005.42
2022-08-17T03:12:35.236Z,1005.32
2022-08-17T03:12:51.586Z,1005.32
2022-08-17T03:13:23.638Z,1005.32
2022-08-17T03:13:41.581Z,1005.42
2022-08-17T03:14:11.520Z,1005.42
2022-08-17T03:14:38.170Z,1005.52
2022-08-17T03:15:01.528Z,1005.52
2022-08-17T03:15:32.773Z,1005.52
2022-08-17T03:16:03.944Z,1005.62
2022-08-17T03:16:34.991Z,1005.52
2022-08-17T03:16:51.380Z,1005.52
2022-08-17T03:17:24.279Z,1005.52
2022-08-17T03:17:41.423Z,1005.42
2022-08-17T03:18:18.929Z,1005.42
2022-08-17T03:18:36.301Z,1005.52
2022-08-17T03:18:59.623Z,1005.52
2022-08-17T03:19:32.674Z,1005.52
2022-08-17T03:20:04.043Z,1005.42
2022-08-17T03:20:35.000Z,1005.52
2022-08-17T03:20:51.450Z,1005.52
2022-08-17T03:21:23.559Z,1005.52
2022-08-17T03:21:40.708Z,1005.42
2022-08-17T03:22:36.165Z,1005.42
2022-08-17T03:22:43.544Z,1005.52
2022-08-17T03:23:15.579Z,1005.52
2022-08-17T03:23:34.965Z,1005.32
2022-08-17T03:24:08.728Z,1005.32
2022-08-17T03:24:35.526Z,1005.42
2022-08-17T03:25:10.649Z,1005.42
2022-08-17T03:25:34.927Z,1005.42
2022-08-17T03:25:55.699Z,1005.42
2022-08-17T03:26:29.842Z,1005.42
2022-08-17T03:26:59.568Z,1005.42
2022-08-17T03:27:32.254Z,1005.42
2022-08-17T03:28:04.444Z,1005.42
2022-08-17T03:28:34.985Z,1005.42
2022-08-17T03:28:51.397Z,1005.42
2022-08-17T03:29:23.713Z,1005.42
2022-08-17T03:29:40.690Z,1005.52
2022-08-17T03:30:11.580Z,1005.52
2022-08-17T03:30:36.306Z,1005.62
2022-08-17T03:30:59.562Z,1005.62
2022-08-17T03:31:32.829Z,1005.62
2022-08-17T03:32:03.922Z,1005.32
2022-08-17T03:32:37.122Z,1005.42
2022-08-17T03:33:07.469Z,1005.42
2022-08-17T03:33:34.993Z,1005.62
2022-08-17T03:33:55.554Z,1005.62
2022-08-17T03:34:27.637Z,1005.62
2022-08-17T03:34:59.528Z,1005.32
2022-08-17T03:35:31.634Z,1005.32
2022-08-17T03:36:04.010Z,1005.62
2022-08-17T03:36:36.280Z,1005.42
2022-08-17T03:37:07.578Z,1005.42
2022-08-17T03:37:35.679Z,1005.32
2022-08-17T03:38:00.877Z,1005.32
2022-08-17T03:38:27.504Z,1005.32
2022-08-17T03:38:59.555Z,1005.42
2022-08-17T03:39:31.652Z,1005.42
2022-08-17T03:40:04.520Z,1005.52
2022-08-17T03:40:57.059Z,1005.42
2022-08-17T03:41:07.510Z,1005.42
2022-08-17T03:41:35.234Z,1005.42
2022-08-17T03:41:55.564Z,1005.42
2022-08-17T03:42:31.870Z,1005.42
2022-08-17T03:43:00.390Z,1005.52
2022-08-17T03:43:31.504Z,1005.52
2022-08-17T03:44:04.602Z,1005.32
2022-08-17T03:44:35.337Z,1005.21
2022-08-17T03:45:07.644Z,1005.21
2022-08-17T03:45:35.003Z,1005.32
2022-08-17T03:45:55.586Z,1005.32
2022-08-17T03:46:35.102Z,1005.32
2022-08-17T03:46:59.830Z,1005.42
2022-08-17T03:47:33.045Z,1005.42
2022-08-17T03:48:04.257Z,1005.21
2022-08-17T03:48:35.981Z,1005.52
2022-08-17T03:49:07.547Z,1005.52
2022-08-17T03:49:36.095Z,1005.21
2022-08-17T03:49:55.614Z,1005.21
2022-08-17T03:50:27.523Z,1005.21
2022-08-17T03:50:59.578Z,1005.21
2022-08-17T03:51:33.557Z,1005.21
2022-08-17T03:52:03.965Z,1005.32
2022-08-17T03:52:35.640Z,1005.21
2022-08-17T03:53:08.228Z,1005.21
2022-08-17T03:53:35.073Z,1005.21
2022-08-17T03:53:56.107Z,1005.21
2022-08-17T03:54:27.496Z,1005.21
2022-08-17T03:54:59.535Z,1005.52
2022-08-17T03:55:36.292Z,1005.52
2022-08-17T03:56:04.044Z,1005.42
2022-08-17T03:56:35.134Z,1005.42
2022-08-17T03:56:51.519Z,1005.42
2022-08-17T03:57:23.586Z,1005.42
2022-08-17T03:57:40.706Z,1005.21
2022-08-17T03:58:12.367Z,1005.21
2022-08-17T03:58:34.983Z,1005.42
2022-08-17T03:58:59.718Z,1005.42
2022-08-17T03:59:31.511Z,1005.42
2022-08-17T04:00:04.189Z,1005.21
2022-08-17T04:00:35.023Z,1005.52
2022-08-17T04:00:51.478Z,1005.52
2022-08-17T04:01:23.670Z,1005.52
2022-08-17T04:01:40.829Z,1005.21
2022-08-17T04:02:11.498Z,1005.21
2022-08-17T04:02:38.185Z,1005.21
2022-08-17T04:02:59.524Z,1005.21
2022-08-17T04:03:31.520Z,1005.21
2022-08-17T04:04:04.149Z,1005.11
2022-08-17T04:04:34.962Z,1005.21
2022-08-17T04:04:51.436Z,1005.21
2022-08-17T04:05:23.700Z,1005.21
2022-08-17T04:05:40.690Z,1005.11
2022-08-17T04:06:11.487Z,1005.11
2022-08-17T04:06:35.954Z,1005.11
2022-08-17T04:06:59.518Z,1005.11
2022-08-17T04:07:31.479Z,1005.11
2022-08-17T04:08:05.326Z,1005.32
2022-08-17T04:08:36.923Z,1005.21
2022-08-17T04:09:07.513Z,1005.21
2022-08-17T04:09:35.044Z,1005.21
2022-08-17T04:09:55.908Z,1005.21
2022-08-17T04:10:27.471Z,1005.21
2022-08-17T04:10:59.589Z,1005.21
2022-08-17T04:11:31.545Z,1005.21
2022-08-17T04:12:05.051Z,1005.21
2022-08-17T04:12:35.018Z,1005.11
2022-08-17T04:12:51.705Z,1005.11
2022-08-17T04:13:25.612Z,1005.11
2022-08-17T04:13:43.415Z,1005.32
2022-08-17T04:14:11.521Z,1005.32
2022-08-17T04:14:35.011Z,1005.11
2022-08-17T04:14:59.552Z,1005.11
2022-08-17T04:15:32.636Z,1005.11
2022-08-17T04:16:04.158Z,1005.42
2022-08-17T04:16:35.633Z,1005.32
2022-08-17T04:17:07.531Z,1005.32
2022-08-17T04:17:35.848Z,1005.32
2022-08-17T04:17:55.557Z,1005.32
2022-08-17T04:18:28.499Z,1005.32
2022-08-17T04:18:59.672Z,1005.11
2022-08-17T04:19:31.615Z,1005.11
2022-08-17T04:20:04.201Z,1005.21
2022-08-17T04:20:35.661Z,1005.21
2022-08-17T04:21:08.783Z,1005.21
2022-08-17T04:21:34.975Z,1005.21
2022-08-17T04:21:55.468Z,1005.21
2022-08-17T04:22:30.753Z,1005.21
2022-08-17T04:22:59.794Z,1005.21
2022-08-17T04:23:34.079Z,1005.21
2022-08-17T04:24:04.357Z,1005.11
2022-08-17T04:24:35.120Z,1005.21
2022-08-17T04:24:51.586Z,1005.21
2022-08-17T04:25:23.885Z,1005.21
2022-08-17T04:25:41.155Z,1005.11
2022-08-17T04:26:11.573Z,1005.11
2022-08-17T04:26:59.743Z,1005.21
2022-08-17T04:27:31.788Z,1005.21
2022-08-17T04:28:04.673Z,1005.11
2022-08-17T04:28:36.607Z,1005.21
2022-08-17T04:29:07.600Z,1005.21
2022-08-17T04:29:55.055Z,1005.11
2022-08-17T04:30:11.624Z,1005.11
2022-08-17T04:30:35.246Z,1005.11
2022-08-17T04:30:59.739Z,1005.11
2022-08-17T04:31:31.656Z,1005.11
2022-08-17T04:32:04.485Z,1004.91
2022-08-17T04:33:19.178Z,1004.91
2022-08-17T04:33:23.909Z,1004.91
2022-08-17T04:33:41.505Z,1005.01
2022-08-17T04:34:11.615Z,1005.01
2022-08-17T04:34:36.543Z,1004.91
2022-08-17T04:34:59.710Z,1004.91
2022-08-17T04:35:31.666Z,1004.91
2022-08-17T04:36:06.037Z,1005.21
2022-08-17T04:36:35.289Z,1005.21
2022-08-17T04:36:51.722Z,1005.21
2022-08-17T04:37:23.776Z,1005.21
2022-08-17T04:37:40.856Z,1005.21
2022-08-17T04:38:11.620Z,1005.21
2022-08-17T04:38:35.358Z,1005.11
2022-08-17T04:38:59.697Z,1005.11
2022-08-17T04:39:33.993Z,1005.11
2022-08-17T04:40:04.626Z,1005.42
2022-08-17T04:40:35.195Z,1005.21
2022-08-17T04:40:51.572Z,1005.21
2022-08-17T04:41:23.898Z,1005.21
2022-08-17T04:41:40.828Z,1005.01
2022-08-17T04:42:12.102Z,1005.01
2022-08-17T04:42:36.229Z,1004.84
2022-08-17T04:43:01.017Z,1004.84
2022-08-17T04:43:32.770Z,1004.84
2022-08-17T04:44:04.683Z,1005.21
2022-08-17T04:44:37.434Z,1005.32
2022-08-17T04:44:52.988Z,1005.32
2022-08-17T04:45:24.152Z,1005.32
2022-08-17T04:45:41.098Z,1005.32
2022-08-17T04:46:11.655Z,1005.32
2022-08-17T04:46:36.142Z,1005.32
2022-08-17T04:46:59.784Z,1005.32
2022-08-17T04:47:31.439Z,1005.32
2022-08-17T04:48:05.365Z,1005.21
2022-08-17T04:48:36.430Z,1005.11
2022-08-17T04:48:51.569Z,1005.11
2022-08-17T04:49:23.916Z,1005.11
2022-08-17T04:49:40.866Z,1005.21
2022-08-17T04:50:12.873Z,1005.21
2022-08-17T04:50:35.300Z,1005.32
2022-08-17T04:50:59.571Z,1005.32
2022-08-17T04:51:31.456Z,1005.32
2022-08-17T04:52:04.785Z,1005.52
2022-08-17T04:52:43.692Z,1005.52
2022-08-17T04:52:53.047Z,1005.52
2022-08-17T04:53:24.518Z,1005.52
2022-08-17T04:53:41.686Z,1005.42
2022-08-17T04:54:13.165Z,1005.42
2022-08-17T04:54:35.274Z,1005.62
2022-08-17T04:54:59.745Z,1005.62
2022-08-17T04:55:31.636Z,1005.62
2022-08-17T04:56:04.547Z,1005.52
2022-08-17T04:56:35.219Z,1005.82
2022-08-17T04:56:51.619Z,1005.82
2022-08-17T04:57:24.169Z,1005.82
2022-08-17T04:57:45.029Z,1005.72
2022-08-17T04:58:12.338Z,1005.72
2022-08-17T04:58:35.199Z,1005.72
2022-08-17T04:58:59.751Z,1005.72
2022-08-17T04:59:31.609Z,1005.72
2022-08-17T05:00:04.638Z,1005.82
2022-08-17T05:00:35.203Z,1005.93
2022-08-17T05:00:51.654Z,1005.93
2022-08-17T05:01:24.550Z,1005.93
2022-08-17T05:01:41.586Z,1006.23
2022-08-17T05:02:11.671Z,1006.23
2022-08-17T05:02:36.937Z,1006.33
2022-08-17T05:02:59.715Z,1006.33
2022-08-17T05:03:31.596Z,1006.33
2022-08-17T05:04:21.079Z,1006.33
2022-08-17T05:04:51.612Z,1006.33
2022-08-17T05:05:23.999Z,1006.33
2022-08-17T05:05:41.553Z,1006.23
2022-08-17T05:06:11.585Z,1006.23
2022-08-17T05:06:35.390Z,1006.13
2022-08-17T05:06:59.724Z,1006.13
2022-08-17T05:07:33.137Z,1006.13
2022-08-17T05:08:04.463Z,1006.03
2022-08-17T05:08:36.316Z,1006.03
2022-08-17T05:09:07.575Z,1006.03
2022-08-17T05:09:35.161Z,1006.13
2022-08-17T05:09:55.826Z,1006.13
2022-08-17T05:10:27.567Z,1006.13
2022-08-17T05:11:00.452Z,1006.33
2022-08-17T05:11:31.607Z,1006.33
2022-08-17T05:12:04.778Z,1006.23
2022-08-17T05:12:35.161Z,1006.03
2022-08-17T05:12:51.825Z,1006.03
2022-08-17T05:13:24.286Z,1006.03
2022-08-17T05:13:43.564Z,1006.33
2022-08-17T05:14:11.707Z,1006.33
2022-08-17T05:14:35.164Z,1006.13
2022-08-17T05:14:59.650Z,1006.13
2022-08-17T05:15:33.187Z,1006.13
2022-08-17T05:16:04.318Z,1006.43
2022-08-17T05:16:35.684Z,1006.23
2022-08-17T05:17:11.360Z,1006.23
2022-08-17T05:17:35.153Z,1006.23
2022-08-17T05:17:57.820Z,1006.23
2022-08-17T05:18:29.297Z,1006.23
2022-08-17T05:18:59.747Z,1006.13
2022-08-17T05:19:31.558Z,1006.13
2022-08-17T05:20:04.990Z,1006.33
2022-08-17T05:20:35.175Z,1006.23
2022-08-17T05:20:52.922Z,1006.23
2022-08-17T05:21:23.940Z,1006.23
2022-08-17T05:21:40.780Z,1006.43
2022-08-17T05:22:11.591Z,1006.43
2022-08-17T05:22:35.189Z,1006.53
2022-08-17T05:22:59.651Z,1006.53
2022-08-17T05:23:41.993Z,1006.53
2022-08-17T05:24:09.686Z,1006.23
2022-08-17T05:24:55.666Z,1006.23
2022-08-17T05:25:25.611Z,1006.23
2022-08-17T05:25:40.808Z,1006.03
2022-08-17T05:26:17.953Z,1006.03
2022-08-17T05:26:36.526Z,1006.23
2022-08-17T05:27:06.577Z,1006.23
2022-08-17T05:27:35.425Z,1006.23
2022-08-17T05:28:04.481Z,1006.03
2022-08-17T05:28:36.193Z,1006.13
2022-08-17T05:29:07.639Z,1006.13
2022-08-17T05:29:35.878Z,1006.23
2022-08-17T05:29:55.790Z,1006.23
2022-08-17T05:30:27.621Z,1006.23
2022-08-17T05:30:59.671Z,1006.13
2022-08-17T05:31:31.620Z,1006.13
2022-08-17T05:32:04.113Z,1005.93
2022-08-17T05:32:51.813Z,1005.82
2022-08-17T05:33:24.189Z,1005.82
2022-08-17T05:33:44.537Z,1005.93
2022-08-17T05:34:11.574Z,1005.93
2022-08-17T05:34:36.004Z,1005.93
2022-08-17T05:34:59.632Z,1005.93
2022-08-17T05:35:32.584Z,1005.93
2022-08-17T05:36:04.166Z,1005.82
2022-08-17T05:36:41.785Z,1006.13
2022-08-17T05:36:51.618Z,1006.13
2022-08-17T05:37:23.962Z,1006.13
2022-08-17T05:37:41.533Z,1005.93
2022-08-17T05:38:11.547Z,1005.93
2022-08-17T05:38:36.865Z,1005.93
2022-08-17T05:38:59.649Z,1005.93
2022-08-17T05:39:31.596Z,1005.93
2022-08-17T05:40:04.491Z,1005.82
2022-08-17T05:40:36.110Z,1006.13
2022-08-17T05:41:07.505Z,1006.13
2022-08-17T05:41:36.121Z,1005.93
2022-08-17T05:41:55.641Z,1005.93
2022-08-17T05:42:28.558Z,1005.93
2022-08-17T05:43:00.515Z,1006.03
2022-08-17T05:43:32.611Z,1006.03
2022-08-17T05:44:05.646Z,1005.82
2022-08-17T05:44:36.153Z,1005.93